createdAt,value
2019-03-08T00:01:42.396Z,10.81
2019-03-08T00:03:50.511Z,10.77
2019-03-08T00:05:58.250Z,10.82
2019-03-08T00:08:06.088Z,10.81
2019-03-08T00:10:14.267Z,10.78
2019-03-08T00:12:22.150Z,10.75
2019-03-08T00:14:30.012Z,10.69
2019-03-08T00:16:37.746Z,10.64
2019-03-08T00:18:45.613Z,10.65
2019-03-08T00:20:53.342Z,10.64
2019-03-08T00:23:01.072Z,10.63
2019-03-08T00:25:08.968Z,10.57
2019-03-08T00:27:16.619Z,10.52
2019-03-08T00:29:24.398Z,10.54
2019-03-08T00:31:32.166Z,10.54
2019-03-08T00:33:40.054Z,10.50
2019-03-08T00:35:49.020Z,10.53
2019-03-08T00:37:56.585Z,10.46
2019-03-08T00:40:05.037Z,10.38
2019-03-08T00:42:12.535Z,10.37
2019-03-08T00:44:20.248Z,10.32
2019-03-08T00:46:28.067Z,10.22
2019-03-08T00:48:35.660Z,10.17
2019-03-08T00:50:43.469Z,10.12
2019-03-08T00:52:51.345Z,10.12
2019-03-08T00:54:59.014Z,10.12
2019-03-08T00:57:06.690Z,10.12
2019-03-08T00:59:14.325Z,10.05
2019-03-08T01:01:22.107Z,10.07
2019-03-08T01:03:29.830Z,10.01
2019-03-08T01:05:37.544Z,10.03
2019-03-08T01:07:45.442Z,10.02
2019-03-08T01:09:53.299Z,10.01
2019-03-08T01:12:01.139Z,9.94
2019-03-08T01:14:09.014Z,9.91
2019-03-08T01:16:16.989Z,9.75
2019-03-08T01:18:25.623Z,9.77
2019-03-08T01:20:33.479Z,9.74
2019-03-08T01:22:41.376Z,9.69
2019-03-08T01:24:49.108Z,9.66
2019-03-08T01:26:57.099Z,9.63
2019-03-08T01:29:05.044Z,9.61
2019-03-08T01:31:12.838Z,9.56
2019-03-08T01:33:20.562Z,9.57
2019-03-08T01:35:28.542Z,9.64
2019-03-08T01:37:36.364Z,9.55
2019-03-08T01:39:44.940Z,9.55
2019-03-08T01:41:52.754Z,9.52
2019-03-08T01:44:00.430Z,9.52
2019-03-08T01:46:08.199Z,9.53
2019-03-08T01:48:15.901Z,9.45
2019-03-08T01:50:23.625Z,9.44
2019-03-08T01:52:31.417Z,9.47
2019-03-08T01:54:39.568Z,9.48
2019-03-08T01:56:47.187Z,9.45
2019-03-08T01:58:54.924Z,9.38
2019-03-08T02:01:02.570Z,9.34
2019-03-08T02:03:10.419Z,9.38
2019-03-08T02:05:19.073Z,9.38
2019-03-08T02:07:26.871Z,9.42
2019-03-08T02:09:34.397Z,9.43
2019-03-08T02:11:42.113Z,9.46
2019-03-08T02:13:49.676Z,9.42
2019-03-08T02:15:57.499Z,9.42
2019-03-08T02:18:05.354Z,9.46
2019-03-08T02:20:16.625Z,9.47
2019-03-08T02:22:24.428Z,9.48
2019-03-08T02:24:32.213Z,9.50
2019-03-08T02:26:40.348Z,9.46
2019-03-08T02:28:48.106Z,9.41
2019-03-08T02:30:55.704Z,9.38
2019-03-08T02:33:03.421Z,9.36
2019-03-08T02:35:12.073Z,9.36
2019-03-08T02:37:19.526Z,9.31
2019-03-08T02:39:27.173Z,9.26
2019-03-08T02:41:34.886Z,9.18
2019-03-08T02:43:42.688Z,9.12
2019-03-08T02:45:50.329Z,9.01
2019-03-08T02:47:57.928Z,8.93
2019-03-08T02:50:05.682Z,8.88
2019-03-08T02:52:13.398Z,8.76
2019-03-08T02:54:20.950Z,8.73
2019-03-08T02:56:28.585Z,8.70
2019-03-08T02:58:36.463Z,8.63
2019-03-08T03:00:48.382Z,8.57
2019-03-08T03:02:55.837Z,8.50
2019-03-08T03:05:03.509Z,8.48
2019-03-08T03:07:11.238Z,8.50
2019-03-08T03:09:18.987Z,8.40
2019-03-08T03:11:26.756Z,8.34
2019-03-08T03:13:34.465Z,8.31
2019-03-08T03:15:42.735Z,8.28
2019-03-08T03:17:50.325Z,8.20
2019-03-08T03:19:57.960Z,8.12
2019-03-08T03:22:05.665Z,8.06
2019-03-08T03:24:13.368Z,8.10
2019-03-08T03:26:21.072Z,8.01
2019-03-08T03:28:28.800Z,8.08
2019-03-08T03:30:36.785Z,8.01
2019-03-08T03:32:44.403Z,7.98
2019-03-08T03:34:52.106Z,8.01
2019-03-08T03:36:59.830Z,7.92
2019-03-08T03:39:09.518Z,7.85
2019-03-08T03:41:17.421Z,7.77
2019-03-08T03:43:25.354Z,7.81
2019-03-08T03:45:33.017Z,7.76
2019-03-08T03:47:40.864Z,7.77
2019-03-08T03:49:48.548Z,7.70
2019-03-08T03:51:56.196Z,7.70
2019-03-08T03:54:03.796Z,7.67
2019-03-08T03:56:11.539Z,7.69
2019-03-08T03:58:19.441Z,7.60
2019-03-08T04:00:27.234Z,7.55
2019-03-08T04:02:35.304Z,7.53
2019-03-08T04:04:43.358Z,7.52
2019-03-08T04:06:51.057Z,7.49
2019-03-08T04:08:58.620Z,7.45
2019-03-08T04:11:06.396Z,7.37
2019-03-08T04:13:14.147Z,7.40
2019-03-08T04:15:22.059Z,7.29
2019-03-08T04:17:29.645Z,7.36
2019-03-08T04:19:37.199Z,7.36
2019-03-08T04:21:45.003Z,7.33
2019-03-08T04:23:52.803Z,7.31
2019-03-08T04:26:00.456Z,7.26
2019-03-08T04:28:08.145Z,7.23
2019-03-08T04:30:16.897Z,7.30
2019-03-08T04:32:24.720Z,7.25
2019-03-08T04:34:32.630Z,7.21
2019-03-08T04:36:40.253Z,7.21
2019-03-08T04:38:47.920Z,7.23
2019-03-08T04:40:55.606Z,7.23
2019-03-08T04:43:03.229Z,7.30
2019-03-08T04:45:12.091Z,7.25
2019-03-08T04:47:19.926Z,7.16
2019-03-08T04:49:27.735Z,7.22
2019-03-08T04:51:35.345Z,7.19
2019-03-08T04:53:42.990Z,7.23
2019-03-08T04:55:50.693Z,7.17
2019-03-08T04:57:58.382Z,7.13
2019-03-08T05:00:06.435Z,7.17
2019-03-08T05:02:14.064Z,7.16
2019-03-08T05:04:21.983Z,7.17
2019-03-08T05:06:29.486Z,7.15
2019-03-08T05:08:37.247Z,7.19
2019-03-08T05:10:45.116Z,7.20
2019-03-08T05:12:52.764Z,7.19
2019-03-08T05:15:00.408Z,7.24
2019-03-08T05:17:08.170Z,7.22
2019-03-08T05:19:15.946Z,7.21
2019-03-08T05:21:23.630Z,7.16
2019-03-08T05:23:31.458Z,7.20
2019-03-08T05:25:39.261Z,7.22
2019-03-08T05:27:47.053Z,7.14
2019-03-08T05:29:54.578Z,7.12
2019-03-08T05:32:02.321Z,7.19
2019-03-08T05:34:09.991Z,7.22
2019-03-08T05:36:18.004Z,7.20
2019-03-08T05:38:25.785Z,7.23
2019-03-08T05:40:33.443Z,7.17
2019-03-08T05:42:41.103Z,7.20
2019-03-08T05:44:48.835Z,7.24
2019-03-08T05:46:56.697Z,7.20
2019-03-08T05:49:04.308Z,7.26
2019-03-08T05:51:12.151Z,7.34
2019-03-08T05:53:19.898Z,7.38
2019-03-08T05:55:27.821Z,7.40
2019-03-08T05:57:35.839Z,7.43
2019-03-08T05:59:45.425Z,7.40
2019-03-08T06:01:53.019Z,7.48
2019-03-08T06:04:00.797Z,7.49
2019-03-08T06:06:08.744Z,7.51
2019-03-08T06:08:16.537Z,7.60
2019-03-08T06:10:40.152Z,7.62
2019-03-08T06:12:48.050Z,7.70
2019-03-08T06:14:56.001Z,7.76
2019-03-08T06:17:03.549Z,7.83
2019-03-08T06:19:11.456Z,7.88
2019-03-08T06:21:19.280Z,7.89
2019-03-08T06:23:27.231Z,7.98
2019-03-08T06:25:35.189Z,8.04
2019-03-08T06:27:42.887Z,8.10
2019-03-08T06:29:50.479Z,8.13
2019-03-08T06:31:58.167Z,8.19
2019-03-08T06:34:05.840Z,8.24
2019-03-08T06:36:13.466Z,8.21
2019-03-08T06:38:21.207Z,8.31
2019-03-08T06:52:18.943Z,8.84
2019-03-08T06:54:26.619Z,8.81
2019-03-08T06:56:34.387Z,8.81
2019-03-08T06:58:59.669Z,8.89
2019-03-08T07:01:12.952Z,8.91
2019-03-08T07:03:20.620Z,8.97
2019-03-08T07:05:28.431Z,9.08
2019-03-08T07:07:36.235Z,9.12
2019-03-08T07:09:43.994Z,9.15
2019-03-08T07:11:51.640Z,9.20
2019-03-08T07:13:59.470Z,9.27
2019-03-08T07:16:13.026Z,9.30
2019-03-08T07:18:16.733Z,9.31
2019-03-08T07:20:43.111Z,9.38
2019-03-08T07:23:01.135Z,9.47
2019-03-08T07:25:27.448Z,9.52
2019-03-08T07:27:53.783Z,9.64
2019-03-08T07:30:32.729Z,9.70
2019-03-08T07:32:58.131Z,9.83
2019-03-08T07:35:19.911Z,9.85
2019-03-08T07:37:41.696Z,9.89
2019-03-08T07:39:59.898Z,10.00
2019-03-08T07:42:35.572Z,10.10
2019-03-08T07:44:55.378Z,10.20
2019-03-08T07:47:27.942Z,10.25
2019-03-08T07:49:49.172Z,10.29
2019-03-08T07:52:30.991Z,10.28
2019-03-08T07:54:52.901Z,10.25
2019-03-08T07:57:23.448Z,10.23
2019-03-08T07:59:53.723Z,10.25
2019-03-08T08:02:02.784Z,10.40
2019-03-08T08:04:17.752Z,10.59
2019-03-08T08:06:34.018Z,10.62
2019-03-08T08:08:59.912Z,10.54
2019-03-08T08:11:34.770Z,10.70
2019-03-08T08:14:02.143Z,10.59
2019-03-08T08:16:17.330Z,10.62
2019-03-08T08:18:46.665Z,10.75
2019-03-08T08:21:10.924Z,10.82
2019-03-08T08:23:43.075Z,10.89
2019-03-08T08:26:05.307Z,10.71
2019-03-08T08:28:37.736Z,10.78
2019-03-08T08:30:59.996Z,10.93
2019-03-08T08:33:25.762Z,11.11
2019-03-08T08:35:59.426Z,11.10
2019-03-08T08:38:25.792Z,11.26
2019-03-08T08:40:44.444Z,11.25
2019-03-08T08:43:11.191Z,11.24
2019-03-08T08:45:50.109Z,11.27
2019-03-08T08:48:12.100Z,11.24
2019-03-08T08:50:28.399Z,11.55
2019-03-08T08:52:43.580Z,11.45
2019-03-08T08:54:59.047Z,11.42
2019-03-08T08:57:28.744Z,11.57
2019-03-08T09:00:01.283Z,11.76
2019-03-08T09:02:30.650Z,11.67
2019-03-08T09:04:52.154Z,11.61
2019-03-08T09:07:18.553Z,11.58
2019-03-08T09:09:57.394Z,11.47
2019-03-08T09:12:17.404Z,11.65
2019-03-08T09:14:29.303Z,11.64
2019-03-08T09:16:42.184Z,11.55
2019-03-08T09:19:00.204Z,11.76
2019-03-08T09:21:26.633Z,11.92
2019-03-08T09:24:08.451Z,11.71
2019-03-08T09:26:34.873Z,11.57
2019-03-08T09:28:52.552Z,11.64
2019-03-08T09:31:25.669Z,11.81
2019-03-08T09:33:47.226Z,11.80
2019-03-08T09:36:12.513Z,11.94
2019-03-08T09:38:57.051Z,11.78
2019-03-08T09:41:29.525Z,12.14
2019-03-08T09:43:55.877Z,12.05
2019-03-08T09:46:13.358Z,11.94
2019-03-08T09:48:48.081Z,12.17
2019-03-08T09:50:55.677Z,12.27
2019-03-08T09:53:19.749Z,12.52
2019-03-08T09:55:49.311Z,12.49
2019-03-08T09:58:20.086Z,12.59
2019-03-08T10:00:45.171Z,12.55
2019-03-08T10:03:20.991Z,12.74
2019-03-08T10:05:47.508Z,12.58
2019-03-08T10:08:32.260Z,12.45
2019-03-08T10:10:59.543Z,12.70
2019-03-08T10:13:17.573Z,13.07
2019-03-08T10:15:38.258Z,12.98
2019-03-08T10:18:23.355Z,13.13
2019-03-08T10:20:49.855Z,13.32
2019-03-08T10:23:22.669Z,13.38
2019-03-08T10:25:49.053Z,13.55
2019-03-08T10:28:15.495Z,13.79
2019-03-08T10:30:48.133Z,13.41
2019-03-08T10:33:13.379Z,13.42
2019-03-08T10:35:40.632Z,13.53
2019-03-08T10:38:22.580Z,13.54
2019-03-08T10:40:37.674Z,12.70
2019-03-08T10:42:58.970Z,12.49
2019-03-08T10:45:20.548Z,12.60
2019-03-08T10:47:56.293Z,12.95
2019-03-08T10:50:21.639Z,13.13
2019-03-08T10:52:46.428Z,13.26
2019-03-08T10:55:10.075Z,13.57
2019-03-08T10:57:35.421Z,13.66
2019-03-08T11:00:01.022Z,13.35
2019-03-08T11:02:28.491Z,13.50
2019-03-08T11:05:01.261Z,13.65
2019-03-08T11:07:37.067Z,13.65
2019-03-08T11:10:01.967Z,13.55
2019-03-08T11:12:27.492Z,13.33
2019-03-08T11:14:52.840Z,13.05
2019-03-08T11:17:22.752Z,12.95
2019-03-08T11:19:49.533Z,12.90
2019-03-08T11:22:11.131Z,12.86
2019-03-08T11:24:40.714Z,12.84
2019-03-08T11:27:06.076Z,12.80
2019-03-08T11:29:32.673Z,12.68
2019-03-08T11:32:02.284Z,12.73
2019-03-08T11:34:35.050Z,12.84
2019-03-08T11:36:54.023Z,13.07
2019-03-08T11:39:13.453Z,13.21
2019-03-08T11:41:28.597Z,12.91
2019-03-08T11:43:51.406Z,12.82
2019-03-08T11:46:21.011Z,13.10
2019-03-08T11:48:37.338Z,12.78
2019-03-08T11:51:03.770Z,12.64
2019-03-08T11:53:30.422Z,12.69
2019-03-08T11:56:03.093Z,12.84
2019-03-08T11:58:38.540Z,12.71
2019-03-08T12:01:02.657Z,12.77
2019-03-08T12:03:38.242Z,13.02
2019-03-08T12:06:04.720Z,13.15
2019-03-08T12:08:46.416Z,13.01
2019-03-08T12:11:23.941Z,13.10
2019-03-08T12:13:40.400Z,12.98
2019-03-08T12:16:13.078Z,12.91
2019-03-08T12:18:51.822Z,13.03
2019-03-08T12:21:21.130Z,12.92
2019-03-08T12:23:59.719Z,12.76
2019-03-08T12:26:18.926Z,12.76
2019-03-08T12:28:57.633Z,12.68
2019-03-08T12:31:11.769Z,12.60
2019-03-08T12:33:44.787Z,12.52
2019-03-08T12:36:13.767Z,12.48
2019-03-08T12:38:52.410Z,12.45
2019-03-08T12:41:27.108Z,12.40
2019-03-08T12:43:56.179Z,12.39
2019-03-08T12:46:14.034Z,12.37
2019-03-08T12:48:39.149Z,12.34
2019-03-08T12:51:24.210Z,12.37
2019-03-08T12:53:46.816Z,12.35
2019-03-08T12:56:27.939Z,12.33
2019-03-08T12:58:56.897Z,12.34
2019-03-08T13:01:29.228Z,12.30
2019-03-08T13:03:54.112Z,12.29
2019-03-08T13:06:24.433Z,12.25
2019-03-08T13:08:42.518Z,12.24
2019-03-08T13:10:49.872Z,12.21
2019-03-08T13:12:57.340Z,12.14
2019-03-08T13:15:05.543Z,12.12
2019-03-08T13:17:13.058Z,12.09
2019-03-08T13:19:20.419Z,12.09
2019-03-08T13:21:28.733Z,12.05
2019-03-08T13:23:36.222Z,12.01
2019-03-08T13:25:43.675Z,11.99
2019-03-08T13:27:51.130Z,11.94
2019-03-08T13:29:58.618Z,11.93
2019-03-08T13:32:06.103Z,11.93
2019-03-08T13:34:13.624Z,11.89
2019-03-08T13:36:21.236Z,11.88
2019-03-08T13:38:28.747Z,11.88
2019-03-08T13:40:36.595Z,11.87
2019-03-08T13:42:43.993Z,11.87
2019-03-08T13:44:51.393Z,11.85
2019-03-08T13:46:58.857Z,11.85
2019-03-08T13:49:06.571Z,11.88
2019-03-08T13:51:14.229Z,11.89
2019-03-08T13:53:21.672Z,11.86
2019-03-08T13:55:29.217Z,11.86
2019-03-08T13:57:36.806Z,11.89
2019-03-08T13:59:44.252Z,11.94
2019-03-08T14:01:51.679Z,12.01
2019-03-08T14:03:59.295Z,12.04
2019-03-08T14:06:07.286Z,12.08
2019-03-08T14:08:14.866Z,12.13
2019-03-08T14:10:22.549Z,12.37
2019-03-08T14:12:29.987Z,12.40
2019-03-08T14:14:37.382Z,12.37
2019-03-08T14:16:44.876Z,12.28
2019-03-08T14:18:52.215Z,12.22
2019-03-08T14:20:59.815Z,12.18
2019-03-08T14:23:07.418Z,12.11
2019-03-08T14:25:15.232Z,12.09
2019-03-08T14:27:22.600Z,12.04
2019-03-08T14:29:30.152Z,12.06
2019-03-08T14:31:45.350Z,12.06
2019-03-08T14:33:52.334Z,12.06
2019-03-08T14:36:03.008Z,12.06
2019-03-08T14:38:08.923Z,12.01
2019-03-08T14:40:43.252Z,11.99
2019-03-08T14:42:57.590Z,11.98
2019-03-08T14:45:13.224Z,11.92
2019-03-08T14:47:29.325Z,11.90
2019-03-08T14:49:36.152Z,11.82
2019-03-08T14:51:44.764Z,11.81
2019-03-08T14:53:54.211Z,11.78
2019-03-08T14:56:01.502Z,11.78
2019-03-08T14:58:09.148Z,11.72
2019-03-08T15:00:25.401Z,11.68
2019-03-08T15:02:34.089Z,11.66
2019-03-08T15:04:41.516Z,11.65
2019-03-08T15:06:48.968Z,11.64
2019-03-08T15:08:56.381Z,11.63
2019-03-08T15:11:04.157Z,11.62
2019-03-08T15:13:11.604Z,11.62
2019-03-08T15:15:19.418Z,11.59
2019-03-08T15:17:29.015Z,11.61
2019-03-08T15:19:40.363Z,11.62
2019-03-08T15:21:48.804Z,11.71
2019-03-08T15:23:55.967Z,11.76
2019-03-08T15:26:03.586Z,11.84
2019-03-08T15:28:11.081Z,11.82
2019-03-08T15:30:19.395Z,11.82
2019-03-08T15:32:26.843Z,11.72
2019-03-08T15:34:34.217Z,11.67
2019-03-08T15:36:41.724Z,11.62
2019-03-08T15:38:57.951Z,11.53
2019-03-08T15:40:58.598Z,11.46
2019-03-08T15:43:09.735Z,11.43
2019-03-08T15:45:16.103Z,11.38
2019-03-08T15:47:24.227Z,11.34
2019-03-08T15:49:31.797Z,11.33
2019-03-08T15:51:39.189Z,11.31
2019-03-08T15:53:47.717Z,11.28
2019-03-08T15:55:55.135Z,11.28
2019-03-08T15:58:02.499Z,11.20
2019-03-08T16:00:16.425Z,11.18
2019-03-08T16:02:23.957Z,11.14
2019-03-08T16:04:31.387Z,11.10
2019-03-08T16:06:39.908Z,11.08
2019-03-08T16:08:48.184Z,11.18
2019-03-08T16:10:55.704Z,11.15
2019-03-08T16:13:03.388Z,11.17
2019-03-08T16:15:11.549Z,11.12
2019-03-08T16:17:18.931Z,11.12
2019-03-08T16:19:26.342Z,11.09
2019-03-08T16:21:34.075Z,11.12
2019-03-08T16:23:41.859Z,11.07
2019-03-08T16:25:49.267Z,11.06
2019-03-08T16:27:56.700Z,11.05
2019-03-08T16:30:09.563Z,11.06
2019-03-08T16:32:31.531Z,11.05
2019-03-08T16:34:38.791Z,11.02
2019-03-08T16:37:14.318Z,10.96
2019-03-08T16:39:49.086Z,10.99
2019-03-08T16:42:13.709Z,10.93
2019-03-08T16:44:30.737Z,10.89
2019-03-08T16:47:08.753Z,10.90
2019-03-08T16:49:39.312Z,10.89
2019-03-08T16:52:05.081Z,10.91
2019-03-08T16:54:43.153Z,10.90
2019-03-08T16:57:01.837Z,10.87
2019-03-08T16:59:26.556Z,10.83
2019-03-08T17:01:52.781Z,10.84
2019-03-08T17:04:14.591Z,10.84
2019-03-08T17:06:35.805Z,10.80
2019-03-08T17:08:52.611Z,10.78
2019-03-08T17:11:16.632Z,10.77
2019-03-08T17:13:45.827Z,10.77
2019-03-08T17:16:10.666Z,10.73
2019-03-08T17:18:27.839Z,10.73
2019-03-08T17:20:45.584Z,10.28
2019-03-08T17:23:08.927Z,9.76
2019-03-08T17:25:41.095Z,9.68
2019-03-08T17:27:56.342Z,9.61
2019-03-08T17:30:16.692Z,9.53
2019-03-08T17:32:41.850Z,9.48
2019-03-08T17:35:11.234Z,9.46
2019-03-08T17:37:43.545Z,9.40
2019-03-08T17:40:15.803Z,9.40
2019-03-08T17:42:40.816Z,9.35
2019-03-08T17:45:14.388Z,9.38
2019-03-08T17:47:30.974Z,9.32
2019-03-08T17:49:55.683Z,9.29
2019-03-08T17:52:12.103Z,9.25
2019-03-08T17:54:44.257Z,9.18
2019-03-08T17:57:05.180Z,9.11
2019-03-08T17:59:28.195Z,9.13
2019-03-08T18:01:53.136Z,9.12
2019-03-08T18:04:19.960Z,9.09
2019-03-08T18:06:52.151Z,9.09
2019-03-08T18:09:25.108Z,8.99
2019-03-08T18:11:52.198Z,8.97
2019-03-08T18:14:08.109Z,8.96
2019-03-08T18:16:38.255Z,8.90
2019-03-08T18:19:17.600Z,8.86
2019-03-08T18:22:03.359Z,8.88
2019-03-08T18:24:32.829Z,8.83
2019-03-08T18:26:59.640Z,8.82
2019-03-08T18:29:33.031Z,8.77
2019-03-08T18:32:03.214Z,8.64
2019-03-08T18:34:29.976Z,8.55
2019-03-08T18:36:55.194Z,8.55
2019-03-08T18:39:15.794Z,8.59
2019-03-08T18:41:43.008Z,8.53
2019-03-08T18:44:09.400Z,8.48
2019-03-08T18:46:32.364Z,8.46
2019-03-08T18:48:58.716Z,8.44
2019-03-08T18:51:25.085Z,8.36
2019-03-08T18:53:47.581Z,8.35
2019-03-08T18:56:20.162Z,8.28
2019-03-08T18:58:52.443Z,8.31
2019-03-08T19:01:17.829Z,8.26
2019-03-08T19:03:47.190Z,8.27
2019-03-08T19:06:13.509Z,8.26
2019-03-08T19:08:58.360Z,8.21
2019-03-08T19:11:30.543Z,8.23
2019-03-08T19:13:45.212Z,8.14
2019-03-08T19:16:02.223Z,8.15
2019-03-08T19:18:24.500Z,8.12
2019-03-08T19:20:49.539Z,8.19
2019-03-08T19:23:18.872Z,8.13
2019-03-08T19:25:48.109Z,8.15
2019-03-08T19:28:02.410Z,8.07
2019-03-08T19:30:39.351Z,8.14
2019-03-08T19:33:08.791Z,8.11
2019-03-08T19:35:35.466Z,8.07
2019-03-08T19:38:04.867Z,8.04
2019-03-08T19:40:43.866Z,7.98
2019-03-08T19:43:08.800Z,7.91
2019-03-08T19:45:33.995Z,7.97
2019-03-08T19:48:00.377Z,7.90
2019-03-08T19:50:18.522Z,7.95
2019-03-08T19:52:44.977Z,7.88
2019-03-08T19:55:11.307Z,7.81
2019-03-08T19:57:55.864Z,7.80
2019-03-08T20:00:25.427Z,7.78
2019-03-08T20:02:45.137Z,7.78
2019-03-08T20:05:11.380Z,7.67
2019-03-08T20:07:40.936Z,7.67
2019-03-08T20:10:13.182Z,7.72
2019-03-08T20:12:55.113Z,7.59
2019-03-08T20:15:20.091Z,7.62
2019-03-08T20:17:49.301Z,7.49
2019-03-08T20:20:14.369Z,7.53
2019-03-08T20:22:43.793Z,7.52
2019-03-08T20:25:25.671Z,7.53
2019-03-08T20:27:51.861Z,7.52
2019-03-08T20:30:13.671Z,7.56
2019-03-08T20:32:39.511Z,7.58
2019-03-08T20:35:01.735Z,7.57
2019-03-08T20:37:40.991Z,7.61
2019-03-08T20:40:11.133Z,7.56
2019-03-08T20:42:36.117Z,7.61
2019-03-08T20:44:58.562Z,7.57
2019-03-08T20:47:09.875Z,7.54
2019-03-08T20:49:17.488Z,7.50
2019-03-08T20:51:24.983Z,7.47
2019-03-08T20:53:32.648Z,7.35
2019-03-08T20:55:41.183Z,7.41
2019-03-08T20:57:49.378Z,7.34
2019-03-08T20:59:57.574Z,7.29
2019-03-08T21:02:05.102Z,7.29
2019-03-08T21:04:12.612Z,7.22
2019-03-08T21:06:20.041Z,7.20
2019-03-08T21:08:27.497Z,7.21
2019-03-08T21:10:40.084Z,7.19
2019-03-08T21:12:46.332Z,7.15
2019-03-08T21:14:54.180Z,7.17
2019-03-08T21:17:01.500Z,7.14
2019-03-08T21:19:10.076Z,7.11
2019-03-08T21:21:17.650Z,7.09
2019-03-08T21:23:25.171Z,7.10
2019-03-08T21:25:32.938Z,7.11
2019-03-08T21:27:40.414Z,7.05
2019-03-08T21:29:47.895Z,6.98
2019-03-08T21:31:55.257Z,6.93
2019-03-08T21:34:02.683Z,7.07
2019-03-08T21:36:10.251Z,6.99
2019-03-08T21:38:18.713Z,6.95
2019-03-08T21:40:26.068Z,6.90
2019-03-08T21:42:33.415Z,6.84
2019-03-08T21:44:41.788Z,6.89
2019-03-08T21:46:49.114Z,6.85
2019-03-08T21:48:56.489Z,6.80
2019-03-08T21:51:03.939Z,6.71
2019-03-08T21:53:11.296Z,6.81
2019-03-08T21:55:18.945Z,6.84
2019-03-08T21:57:26.396Z,6.72
2019-03-08T21:59:33.742Z,6.70
2019-03-08T22:01:41.131Z,6.70
2019-03-08T22:03:54.930Z,6.64
2019-03-08T22:06:02.362Z,6.67
2019-03-08T22:08:16.945Z,6.68
2019-03-08T22:10:46.731Z,6.61
2019-03-08T22:12:54.131Z,6.56
2019-03-08T22:15:01.770Z,6.62
2019-03-08T22:17:09.170Z,6.53
2019-03-08T22:19:16.531Z,6.38
2019-03-08T22:21:23.977Z,6.52
2019-03-08T22:23:31.552Z,6.56
2019-03-08T22:25:39.189Z,6.44
2019-03-08T22:27:46.578Z,6.46
2019-03-08T22:29:54.073Z,6.36
2019-03-08T22:32:01.542Z,6.45
2019-03-08T22:34:09.114Z,6.30
2019-03-08T22:36:16.613Z,6.38
2019-03-08T22:38:24.063Z,6.31
2019-03-08T22:40:31.473Z,6.32
2019-03-08T22:42:40.007Z,6.35
2019-03-08T22:44:47.548Z,6.26
2019-03-08T22:46:55.030Z,6.17
2019-03-08T22:49:02.671Z,6.22
2019-03-08T22:51:11.096Z,6.25
2019-03-08T22:53:18.563Z,6.21
2019-03-08T22:55:26.029Z,6.12
2019-03-08T22:57:33.428Z,6.17
2019-03-08T22:59:40.833Z,6.18
2019-03-08T23:01:54.375Z,6.16
2019-03-08T23:04:01.831Z,6.22
2019-03-08T23:06:09.337Z,6.18
2019-03-08T23:08:16.887Z,6.11
2019-03-08T23:10:24.629Z,6.09
2019-03-08T23:12:32.033Z,6.04
2019-03-08T23:14:39.405Z,6.01
2019-03-08T23:16:46.922Z,5.97
2019-03-08T23:18:54.352Z,6.03
2019-03-08T23:21:01.860Z,5.96
2019-03-08T23:23:09.383Z,6.06
2019-03-08T23:25:16.775Z,5.94
2019-03-08T23:27:41.857Z,6.00
2019-03-08T23:30:01.212Z,5.89
2019-03-08T23:32:21.390Z,5.87
2019-03-08T23:34:28.635Z,5.82
2019-03-08T23:36:36.089Z,5.83
2019-03-08T23:38:43.814Z,5.84
2019-03-08T23:40:51.262Z,5.81
2019-03-08T23:42:58.630Z,5.78
2019-03-08T23:45:06.777Z,5.74
2019-03-08T23:47:14.118Z,5.66
2019-03-08T23:49:21.478Z,5.74
2019-03-08T23:51:28.680Z,5.72
2019-03-08T23:53:36.065Z,5.68
2019-03-08T23:55:43.632Z,5.69
2019-03-08T23:57:50.983Z,5.71
2019-03-08T23:59:58.323Z,5.57
